Sharon, New Hampshire
Current Conditions -  °F | °C
As of 9:52 AM on Saturday 25 Oct 2014 (Local Time) from KAFN Reporting Station
Clear Clear  
Wind Chill: 51°   Ceiling: Unl
Heat Index: 51°   Visibility: 10mi
Dew Point: 39°   Wind: 9mph
Humidity: 63%   Direction: 250°WSW
Pressure: 29.75"   Gusts: NA
Location:  42.8756°N, 71.9378°W
Report Text: KAFN 251352Z AUTO 25008KT 10SM CLR 11/04 A2975 RMK AO2 SLP082 T01060039
Loading
Personal Weather Stations






























Interactive Weather Map
Tropical Storm Tracking
New forecast layout! Learn more

10-Day Weather Forecast

Advertisements
Track Severe Weather on mobile